Time;durP1;ratioP1;P1;durP2;ratioP2;P2;SDS_P1;SDS_P2;PMS_P1;PMS_P2;Temp;Humidity;BMP_temperature;BMP_pressure;BME280_temperature;BME280_humidity;BME280_pressure;Samples;Min_cycle;Max_cycle;Signal;HPM_P1;HPM_P2
2023/04/16 00:06:10;;;;;;;4.93;4.53;;;;;;;8.10;81.40;96505.03;5178000;23;20081;-79
2023/04/16 00:08:38;;;;;;;5.00;4.60;;;;;;;8.10;80.78;96505.84;5015959;28;20081;-80
2023/04/16 00:11:05;;;;;;;5.07;4.57;;;;;;;8.07;80.57;96506.19;5016697;28;20045;-80
2023/04/16 00:13:33;;;;;;;5.28;4.80;;;;;;;8.05;80.61;96505.53;5015876;28;20104;-84
2023/04/16 00:16:00;;;;;;;5.22;4.72;;;;;;;7.99;80.61;96501.81;5015951;28;20425;-79
2023/04/16 00:18:28;;;;;;;5.70;4.68;;;;;;;8.00;81.12;96506.06;5035219;23;20041;-79
2023/04/16 00:20:55;;;;;;;5.55;5.05;;;;;;;8.03;81.69;96504.91;5013833;28;20050;-79
2023/04/16 00:23:24;;;;;;;5.70;5.07;;;;;;;8.07;81.72;96510.56;5014206;28;20058;-79
2023/04/16 00:25:52;;;;;;;4.72;4.30;;;;;;;8.05;80.74;96497.75;5014393;28;20062;-79
2023/04/16 00:28:20;;;;;;;4.90;4.50;;;;;;;8.04;80.62;96499.50;5013783;28;20057;-80
2023/04/16 00:30:48;;;;;;;4.97;4.45;;;;;;;8.05;80.94;96503.75;5013908;28;20136;-79
2023/04/16 00:33:15;;;;;;;4.55;4.15;;;;;;;8.04;80.34;96498.72;5013932;28;20425;-79
2023/04/16 00:35:45;;;;;;;4.82;4.32;;;;;;;8.01;80.46;96497.25;5013792;28;20489;-79
2023/04/16 00:38:13;;;;;;;5.03;4.53;;;;;;;8.05;81.18;96498.56;5014229;28;20144;-79
2023/04/16 00:40:42;;;;;;;4.32;3.92;;;;;;;8.08;81.76;96501.78;5014053;28;20140;-79
2023/04/16 00:43:10;;;;;;;6.50;5.63;;;;;;;8.10;81.48;96497.25;5013896;28;20046;-80
2023/04/16 00:45:38;;;;;;;35.28;21.77;;;;;;;8.12;81.21;96503.09;5013804;28;20046;-79
2023/04/16 00:48:07;;;;;;;36.75;21.83;;;;;;;8.14;81.84;96501.94;5013642;28;20104;-79
2023/04/16 00:50:35;;;;;;;21.85;14.50;;;;;;;8.17;81.67;96498.97;5013858;28;20075;-79
2023/04/16 00:53:03;;;;;;;11.63;8.40;;;;;;;8.16;81.25;96504.38;5014205;28;20049;-79
2023/04/16 00:55:31;;;;;;;5.60;5.00;;;;;;;8.15;80.37;96497.53;5014027;28;20104;-79
2023/04/16 00:58:00;;;;;;;5.78;5.18;;;;;;;8.12;80.20;96500.50;5013494;28;20060;-79
2023/04/16 01:00:28;;;;;;;7.45;6.10;;;;;;;8.12;81.24;96503.09;5013666;28;20050;-79
2023/04/16 01:02:56;;;;;;;4.80;4.15;;;;;;;8.13;80.67;96502.09;5013661;28;20064;-79
2023/04/16 01:05:24;;;;;;;7.35;5.35;;;;;;;8.15;81.17;96498.34;5013604;28;20460;-79
2023/04/16 01:07:52;;;;;;;12.30;9.32;;;;;;;8.19;81.68;96501.41;5013010;28;20045;-79
2023/04/16 01:10:20;;;;;;;5.65;5.05;;;;;;;8.22;81.66;96501.06;5013891;28;20165;-79
2023/04/16 01:12:48;;;;;;;6.00;5.07;;;;;;;8.24;81.53;96501.72;5013314;28;20100;-79
2023/04/16 01:15:18;;;;;;;10.10;8.27;;;;;;;8.24;81.95;96499.94;5014068;28;20387;-79
2023/04/16 01:17:46;;;;;;;14.63;8.82;;;;;;;8.25;81.46;96506.75;5013333;28;20054;-79
2023/04/16 01:20:14;;;;;;;10.05;7.35;;;;;;;8.24;80.66;96499.13;5014174;28;20053;-79
2023/04/16 01:22:43;;;;;;;13.23;8.82;;;;;;;8.22;81.03;96498.47;5013226;28;20502;-79
2023/04/16 01:25:14;;;;;;;10.98;7.53;;;;;;;8.25;81.95;96503.34;5013444;28;20041;-79
2023/04/16 01:27:43;;;;;;;5.68;4.55;;;;;;;8.28;82.30;96504.78;5013276;28;20448;-79
2023/04/16 01:30:11;;;;;;;4.63;4.22;;;;;;;8.29;82.13;96509.00;5014112;28;20049;-79
2023/04/16 01:32:40;;;;;;;4.40;4.00;;;;;;;8.28;81.51;96504.78;5013217;28;20559;-79
2023/04/16 01:35:08;;;;;;;4.65;4.22;;;;;;;8.27;81.24;96505.78;5013770;28;20116;-79
2023/04/16 01:37:37;;;;;;;4.35;3.92;;;;;;;8.28;81.80;96507.41;5013046;28;20147;-79
2023/04/16 01:40:08;;;;;;;4.72;4.00;;;;;;;8.30;81.70;96510.63;5013554;28;20050;-79
2023/04/16 01:42:37;;;;;;;4.07;3.67;;;;;;;8.29;82.11;96512.44;5013517;28;20472;-79
2023/04/16 01:45:07;;;;;;;4.25;3.85;;;;;;;8.31;82.25;96512.25;5013631;28;20498;-79
2023/04/16 01:47:35;;;;;;;3.95;3.55;;;;;;;8.31;82.19;96513.06;5013149;28;20128;-80
2023/04/16 01:50:04;;;;;;;4.30;3.90;;;;;;;8.33;81.96;96505.09;5013546;28;20054;-79
2023/04/16 01:52:32;;;;;;;4.63;4.13;;;;;;;8.32;81.58;96506.09;5012867;28;20050;-79
2023/04/16 01:55:00;;;;;;;4.10;3.70;;;;;;;8.32;81.96;96508.69;5012935;28;20138;-79
2023/04/16 01:57:30;;;;;;;4.43;4.03;;;;;;;8.34;82.46;96506.72;5013018;28;20054;-79
2023/04/16 01:59:57;;;;;;;5.03;4.18;;;;;;;8.36;82.33;96509.97;5012856;28;20081;-79
2023/04/16 02:02:27;;;;;;;4.45;3.88;;;;;;;8.34;81.78;96501.53;5012725;28;20052;-79
2023/04/16 02:04:56;;;;;;;5.68;3.90;;;;;;;8.32;81.93;96506.09;5012521;28;20053;-79
2023/04/16 02:07:24;;;;;;;4.75;4.30;;;;;;;8.32;82.12;96506.09;5012588;28;20519;-80
2023/04/16 02:09:52;;;;;;;3.90;3.50;;;;;;;8.31;82.13;96502.69;5012939;28;20136;-79
2023/04/16 02:12:20;;;;;;;4.00;3.60;;;;;;;8.33;82.10;96494.69;5012834;28;20056;-79
2023/04/16 02:14:50;;;;;;;5.38;4.32;;;;;;;8.34;81.76;96506.72;5013168;28;20053;-79
2023/04/16 02:17:18;;;;;;;3.83;3.50;;;;;;;8.31;81.67;96507.03;5012655;28;20056;-79
2023/04/16 02:19:47;;;;;;;4.22;3.83;;;;;;;8.30;82.33;96498.44;5014046;28;20064;-79
2023/04/16 02:22:15;;;;;;;4.40;3.83;;;;;;;8.32;82.20;96495.69;5016452;28;20054;-79
2023/04/16 02:24:44;;;;;;;3.50;3.20;;;;;;;8.34;82.33;96501.53;5016855;28;20100;-79
2023/04/16 02:27:12;;;;;;;5.28;4.00;;;;;;;8.34;82.08;96506.72;5016620;28;20053;-79
2023/04/16 02:29:40;;;;;;;4.15;3.75;;;;;;;8.35;82.07;96508.31;5016544;28;20050;-79
2023/04/16 02:32:10;;;;;;;3.50;3.20;;;;;;;8.37;82.27;96508.97;5016540;28;20046;-80
2023/04/16 02:34:40;;;;;;;4.35;3.90;;;;;;;8.34;82.07;96504.94;5017015;28;20052;-79
2023/04/16 02:37:09;;;;;;;3.60;3.15;;;;;;;8.33;82.56;96505.09;5016576;28;20144;-79
2023/04/16 02:39:37;;;;;;;4.13;3.70;;;;;;;8.32;82.42;96498.28;5016494;28;20077;-80
2023/04/16 02:42:06;;;;;;;3.45;3.15;;;;;;;8.31;81.77;96507.03;5016162;28;20056;-79
2023/04/16 02:44:34;;;;;;;4.90;4.00;;;;;;;8.26;81.60;96507.56;5016332;28;20367;-79
2023/04/16 02:47:02;;;;;;;3.08;2.80;;;;;;;8.23;81.82;96500.91;5016275;28;20054;-79
2023/04/16 02:49:31;;;;;;;3.47;3.15;;;;;;;8.23;82.42;96513.91;5016409;28;20086;-79
2023/04/16 02:51:59;;;;;;;3.47;3.17;;;;;;;8.21;82.40;96502.88;5016287;28;20062;-79
2023/04/16 02:54:28;;;;;;;3.20;2.92;;;;;;;8.19;82.47;96504.81;5016147;28;20088;-79
2023/04/16 02:56:56;;;;;;;3.13;2.83;;;;;;;8.19;82.86;96510.03;5025122;28;20061;-79
2023/04/16 02:59:25;;;;;;;3.10;2.42;;;;;;;8.24;82.73;96517.31;5030852;28;20054;-80
2023/04/16 03:01:54;;;;;;;2.55;2.35;;;;;;;8.20;82.38;96510.84;5022809;28;20041;-79
2023/04/16 03:04:23;;;;;;;2.65;2.45;;;;;;;8.19;82.36;96511.81;5016696;28;20084;-79
2023/04/16 03:06:53;;;;;;;2.38;2.17;;;;;;;8.18;82.38;96520.59;5016106;28;20108;-79
2023/04/16 03:09:21;;;;;;;2.55;2.35;;;;;;;8.16;82.36;96506.97;5015602;28;20123;-79
2023/04/16 03:11:49;;;;;;;6.50;2.90;;;;;;;8.16;82.82;96515.56;5015465;28;20056;-79
2023/04/16 03:14:17;;;;;;;2.63;2.42;;;;;;;8.16;82.89;96507.78;5015694;28;20104;-79
2023/04/16 03:16:45;;;;;;;2.65;2.10;;;;;;;8.16;82.52;96510.38;5015903;28;20046;-79
2023/04/16 03:19:14;;;;;;;2.53;2.33;;;;;;;8.17;82.77;96511.97;5015358;28;20053;-79
2023/04/16 03:21:42;;;;;;;2.90;1.83;;;;;;;8.16;82.44;96510.38;5015454;28;20049;-79
2023/04/16 03:24:12;;;;;;;2.78;2.30;;;;;;;8.17;82.81;96516.38;5015342;28;20053;-78
2023/04/16 03:26:40;;;;;;;2.80;2.60;;;;;;;8.19;82.84;96515.22;5015603;28;20050;-79
2023/04/16 03:29:08;;;;;;;2.53;2.33;;;;;;;8.19;82.18;96514.41;5015391;28;20053;-79
2023/04/16 03:31:37;;;;;;;2.65;2.45;;;;;;;8.16;82.55;96515.56;5015149;28;20049;-79
2023/04/16 03:34:06;;;;;;;1.80;1.70;;;;;;;8.16;82.68;96520.75;5015620;28;20088;-79
2023/04/16 03:36:34;;;;;;;2.45;2.25;;;;;;;8.17;82.81;96516.38;5015419;28;20052;-79
2023/04/16 03:39:02;;;;;;;2.88;2.63;;;;;;;8.17;83.12;96519.78;5015055;28;20078;-79
2023/04/16 03:41:31;;;;;;;2.80;2.53;;;;;;;8.15;83.01;96526.91;5015475;28;20109;-79
2023/04/16 03:43:59;;;;;;;3.15;2.50;;;;;;;8.15;83.26;96526.13;5015283;28;20065;-79
2023/04/16 03:46:27;;;;;;;3.25;2.42;;;;;;;8.17;83.36;96527.56;5015098;28;20100;-79
2023/04/16 03:48:55;;;;;;;2.45;2.13;;;;;;;8.18;83.54;96534.41;5014835;28;20045;-79
2023/04/16 03:51:23;;;;;;;2.45;2.25;;;;;;;8.20;83.09;96529.84;5014882;28;20420;-79
2023/04/16 03:53:51;;;;;;;2.25;1.90;;;;;;;8.18;83.05;96531.81;5014664;28;20572;-79
2023/04/16 03:56:19;;;;;;;2.58;2.38;;;;;;;8.15;82.91;96526.13;5014756;28;20086;-79
2023/04/16 03:58:49;;;;;;;3.35;2.97;;;;;;;8.14;83.19;96534.91;5014929;28;20050;-79
2023/04/16 04:01:17;;;;;;;4.13;2.17;;;;;;;8.14;83.18;96533.09;5016027;28;20081;-79
2023/04/16 04:03:46;;;;;;;2.17;1.95;;;;;;;8.14;83.02;96537.50;5023923;28;20052;-79
2023/04/16 04:06:15;;;;;;;3.78;2.50;;;;;;;8.12;83.22;96536.84;5031032;28;20046;-80
2023/04/16 04:08:43;;;;;;;1.98;1.73;;;;;;;8.10;83.16;96528.41;5031928;28;20078;-79
2023/04/16 04:11:11;;;;;;;3.42;2.35;;;;;;;8.11;83.43;96538.66;5030274;28;20057;-79
2023/04/16 04:13:39;;;;;;;2.38;2.17;;;;;;;8.13;83.58;96539.25;5016354;28;20474;-79
2023/04/16 04:16:09;;;;;;;2.58;2.20;;;;;;;8.16;83.20;96541.56;5014984;28;20477;-79
2023/04/16 04:18:37;;;;;;;2.25;2.10;;;;;;;8.19;83.52;96540.41;5014749;28;20154;-79
2023/04/16 04:21:06;;;;;;;2.28;1.98;;;;;;;8.20;83.08;96542.84;5014240;28;20053;-80
2023/04/16 04:23:33;;;;;;;2.55;2.35;;;;;;;8.20;83.18;96542.03;5013931;28;20050;-79
2023/04/16 04:26:02;;;;;;;4.88;3.45;;;;;;;8.23;83.45;96537.28;5014175;28;20581;-79
2023/04/16 04:28:30;;;;;;;2.53;2.30;;;;;;;8.22;83.43;96535.69;5013850;28;20053;-79
2023/04/16 04:30:58;;;;;;;2.40;2.20;;;;;;;8.26;83.26;96543.94;5014355;28;20060;-79
2023/04/16 04:33:29;;;;;;;3.08;2.53;;;;;;;8.27;83.25;96548.16;5013109;28;20056;-79
2023/04/16 04:35:56;;;;;;;3.05;2.42;;;;;;;8.28;83.39;96546.38;5013689;28;20042;-79
2023/04/16 04:38:24;;;;;;;2.70;2.50;;;;;;;8.30;83.07;96557.41;5014000;28;20050;-79
2023/04/16 04:40:52;;;;;;;3.13;2.40;;;;;;;8.29;82.91;96563.56;5013998;28;20061;-79
2023/04/16 04:43:20;;;;;;;3.63;2.75;;;;;;;8.31;83.15;96561.63;5012740;28;20057;-79
2023/04/16 04:45:48;;;;;;;4.00;2.75;;;;;;;8.32;83.26;96561.47;5013345;28;20515;-79
2023/04/16 04:48:16;;;;;;;3.75;2.60;;;;;;;8.33;82.62;96557.06;5014140;28;20050;-79
2023/04/16 04:50:46;;;;;;;3.08;2.28;;;;;;;8.29;82.91;96561.81;5013825;28;20053;-79
2023/04/16 04:53:14;;;;;;;3.20;2.00;;;;;;;8.27;82.71;96565.56;5013812;28;20425;-79
2023/04/16 04:55:42;;;;;;;2.45;2.20;;;;;;;8.25;82.91;96566.53;5013383;28;20077;-79
2023/04/16 04:58:10;;;;;;;2.75;2.55;;;;;;;8.27;82.96;96568.16;5013777;28;20046;-79
2023/04/16 05:00:38;;;;;;;3.00;2.70;;;;;;;8.27;82.62;96563.75;5013771;28;20046;-79
2023/04/16 05:03:09;;;;;;;4.10;3.22;;;;;;;8.25;82.91;96568.31;5013883;28;20133;-79
2023/04/16 05:05:37;;;;;;;3.25;2.95;;;;;;;8.21;83.00;96562.63;5013641;28;20064;-79
2023/04/16 05:08:07;;;;;;;4.85;3.55;;;;;;;8.15;83.40;96573.69;5013795;28;20042;-79
2023/04/16 05:10:35;;;;;;;4.53;2.67;;;;;;;8.14;83.49;96568.69;5013753;28;20056;-79
2023/04/16 05:13:03;;;;;;;3.33;2.50;;;;;;;8.12;83.40;96579.22;5013734;28;20050;-79
2023/04/16 05:15:31;;;;;;;3.00;2.70;;;;;;;8.10;83.39;96578.59;5013632;28;20064;-79
2023/04/16 05:17:59;;;;;;;2.88;2.60;;;;;;;8.11;83.48;96579.38;5013243;28;20060;-79
2023/04/16 05:20:27;;;;;;;3.25;2.80;;;;;;;8.10;83.53;96583.78;5013610;28;20046;-79
2023/04/16 05:22:55;;;;;;;3.65;3.20;;;;;;;8.11;83.65;96584.59;5013606;28;20054;-79
2023/04/16 05:25:25;;;;;;;3.28;2.85;;;;;;;8.12;84.04;96586.22;5013533;28;20088;-79
2023/04/16 05:27:52;;;;;;;4.05;2.95;;;;;;;8.15;84.03;96586.69;5013576;28;20141;-79
2023/04/16 05:30:21;;;;;;;3.40;2.90;;;;;;;8.19;83.99;96593.16;5013806;28;20041;-79
2023/04/16 05:32:49;;;;;;;2.70;2.50;;;;;;;8.20;83.69;96589.59;5013474;28;20056;-79
2023/04/16 05:35:17;;;;;;;2.60;2.40;;;;;;;8.23;83.86;96594.47;5013593;28;20403;-79
2023/04/16 05:37:45;;;;;;;3.40;2.72;;;;;;;8.25;83.46;96596.91;5013234;28;20061;-79
2023/04/16 05:40:14;;;;;;;3.30;2.58;;;;;;;8.25;83.51;96597.72;5013177;28;20058;-79
2023/04/16 05:42:43;;;;;;;3.78;2.88;;;;;;;8.24;83.28;96593.50;5013615;28;20066;-79
2023/04/16 05:45:11;;;;;;;2.20;1.98;;;;;;;8.22;83.34;96603.25;5013463;28;20053;-79
2023/04/16 05:47:40;;;;;;;4.07;2.42;;;;;;;8.19;83.50;96603.56;5012875;28;20077;-79
2023/04/16 05:50:08;;;;;;;2.33;2.10;;;;;;;8.19;83.66;96608.75;5013779;28;20092;-79
2023/04/16 05:52:36;;;;;;;3.53;2.08;;;;;;;8.22;83.85;96602.41;5013666;28;20050;-79
2023/04/16 05:55:04;;;;;;;3.47;2.20;;;;;;;8.24;83.78;96609.09;5015345;28;20050;-79
2023/04/16 05:57:33;;;;;;;2.95;2.28;;;;;;;8.25;83.44;96608.09;5017292;28;20523;-79
2023/04/16 06:00:02;;;;;;;2.40;2.20;;;;;;;8.28;83.57;96619.94;5017036;28;20054;-79
2023/04/16 06:02:30;;;;;;;2.22;1.98;;;;;;;8.25;83.03;96618.50;5017350;28;20053;-81
2023/04/16 06:04:58;;;;;;;2.78;2.30;;;;;;;8.27;83.34;96620.13;5016697;28;20437;-79
2023/04/16 06:07:26;;;;;;;2.72;2.33;;;;;;;8.25;83.01;96623.69;5017364;28;20081;-79
2023/04/16 06:09:54;;;;;;;3.20;2.50;;;;;;;8.23;83.02;96625.66;5029513;28;20129;-79
2023/04/16 06:12:22;;;;;;;2.42;1.80;;;;;;;8.22;83.43;96628.41;5031965;28;20054;-79
2023/04/16 06:14:50;;;;;;;2.22;2.00;;;;;;;8.20;83.30;96630.38;5021177;28;20108;-79
2023/04/16 06:17:20;;;;;;;2.83;2.42;;;;;;;8.22;83.65;96634.44;5038917;23;20085;-80
2023/04/16 06:19:47;;;;;;;2.20;2.00;;;;;;;8.23;83.54;96630.03;5016321;28;20053;-78
2023/04/16 06:22:15;;;;;;;2.95;2.58;;;;;;;8.27;83.67;96633.13;5017218;28;20520;-76
2023/04/16 06:24:42;;;;;;;2.08;1.88;;;;;;;8.25;82.97;96636.69;5037836;28;20501;-79
2023/04/16 06:27:10;;;;;;;2.13;1.95;;;;;;;8.27;83.60;96636.53;5037822;28;20057;-79
2023/04/16 06:29:38;;;;;;;2.72;2.30;;;;;;;8.30;83.55;96635.38;5038274;28;20060;-76
2023/04/16 06:32:08;;;;;;;3.75;2.63;;;;;;;8.32;83.58;96638.63;5037663;28;20115;-76
2023/04/16 06:34:38;;;;;;;2.97;2.10;;;;;;;8.33;83.46;96641.06;5037871;28;20046;-80
2023/04/16 06:37:05;;;;;;;3.63;2.28;;;;;;;8.31;83.43;96643.03;5037959;28;20054;-79
2023/04/16 06:39:36;;;;;;;3.28;2.45;;;;;;;8.33;83.48;96642.84;5036688;28;20493;-80
2023/04/16 06:42:04;;;;;;;3.20;2.90;;;;;;;8.34;83.47;96653.06;5036245;28;20061;-79
2023/04/16 06:44:32;;;;;;;3.47;2.67;;;;;;;8.38;83.74;96648.38;5036413;28;20049;-78
2023/04/16 06:47:00;;;;;;;4.20;2.78;;;;;;;8.41;83.43;96645.44;5036310;28;20049;-77
2023/04/16 06:49:27;;;;;;;3.65;2.70;;;;;;;8.42;83.18;96644.50;5036395;28;20417;-77
2023/04/16 06:51:57;;;;;;;3.05;2.60;;;;;;;8.44;83.49;96651.13;5036357;28;20436;-77
2023/04/16 06:54:25;;;;;;;5.13;3.05;;;;;;;8.46;82.83;96643.16;5035729;28;20050;-78
2023/04/16 06:56:52;;;;;;;5.22;3.10;;;;;;;8.46;83.11;96650.94;5035996;28;20053;-79
2023/04/16 06:59:20;;;;;;;3.53;3.22;;;;;;;8.47;83.04;96647.38;5036206;28;20056;-78
2023/04/16 07:01:47;;;;;;;2.85;2.60;;;;;;;8.49;83.02;96647.22;5036204;28;20061;-78
2023/04/16 07:04:15;;;;;;;3.97;3.03;;;;;;;8.51;83.32;96653.88;5035643;28;20052;-78
2023/04/16 07:06:43;;;;;;;3.92;3.28;;;;;;;8.53;82.92;96657.13;5035669;28;20447;-78
2023/04/16 07:09:12;;;;;;;3.78;3.25;;;;;;;8.53;83.02;96659.72;5035974;28;20053;-78
2023/04/16 07:11:40;;;;;;;4.90;3.58;;;;;;;8.54;83.00;96661.34;5035649;28;20464;-79
2023/04/16 07:14:08;;;;;;;4.80;3.83;;;;;;;8.54;82.65;96656.13;5036505;28;20049;-77
2023/04/16 07:16:36;;;;;;;6.28;4.40;;;;;;;8.52;81.99;96662.47;5036672;28;20045;-79
2023/04/16 07:19:04;;;;;;;5.38;4.50;;;;;;;8.52;82.68;96655.47;5047481;28;20046;-78
2023/04/16 07:21:31;;;;;;;5.90;4.65;;;;;;;8.53;83.00;96657.13;5040638;28;20049;-80
2023/04/16 07:23:59;;;;;;;5.80;4.47;;;;;;;8.56;83.01;96654.19;5035163;28;20061;-78
2023/04/16 07:26:28;;;;;;;6.95;4.85;;;;;;;8.58;83.02;96660.03;5035602;28;20077;-80
2023/04/16 07:28:56;;;;;;;6.13;4.50;;;;;;;8.60;82.44;96658.06;5034650;28;20050;-79
2023/04/16 07:31:23;;;;;;;6.72;5.22;;;;;;;8.60;82.53;96658.06;5035635;28;20064;-79
2023/04/16 07:33:51;;;;;;;7.40;5.68;;;;;;;8.62;82.41;96663.91;5034838;28;20050;-77
2023/04/16 07:36:19;;;;;;;7.88;5.80;;;;;;;8.63;82.55;96668.13;5037464;28;20048;-78
2023/04/16 07:38:46;;;;;;;7.32;5.38;;;;;;;8.62;82.38;96665.72;5035689;28;20046;-78
2023/04/16 07:41:14;;;;;;;7.15;5.20;;;;;;;8.62;82.36;96671.72;5035841;28;20497;-76
2023/04/16 07:43:43;;;;;;;6.40;5.70;;;;;;;8.60;82.04;96668.47;5035100;28;20049;-78
2023/04/16 07:46:11;;;;;;;7.97;6.25;;;;;;;8.57;82.13;96675.78;5034744;28;20050;-79
2023/04/16 07:48:38;;;;;;;7.43;6.10;;;;;;;8.55;82.06;96677.72;5034780;28;20103;-79
2023/04/16 07:51:06;;;;;;;7.75;5.85;;;;;;;8.55;82.44;96683.78;5036422;28;20064;-80
2023/04/16 07:53:34;;;;;;;7.30;5.85;;;;;;;8.56;82.82;96687.16;5036727;28;20053;-79
2023/04/16 07:56:01;;;;;;;7.50;6.43;;;;;;;8.56;82.14;96682.78;5036515;28;20056;-80
2023/04/16 07:58:29;;;;;;;8.75;6.45;;;;;;;8.58;82.37;96688.63;5037019;28;20132;-80
2023/04/16 08:00:58;;;;;;;7.10;6.22;;;;;;;8.61;82.69;96684.88;5036776;28;20049;-80
2023/04/16 08:03:26;;;;;;;7.72;6.05;;;;;;;8.61;82.37;96685.69;5036042;28;20504;-79
2023/04/16 08:05:53;;;;;;;8.10;6.13;;;;;;;8.62;82.46;96695.13;5036846;28;20050;-79
2023/04/16 08:08:22;;;;;;;7.90;6.15;;;;;;;8.62;82.23;96694.31;5037123;28;20061;-80
2023/04/16 08:10:54;;;;;;;7.38;5.95;;;;;;;8.65;82.79;96696.56;5036792;28;20520;-79
2023/04/16 08:13:22;;;;;;;6.22;5.10;;;;;;;8.69;82.43;96699.66;5036317;28;20057;-80
2023/04/16 08:15:50;;;;;;;6.28;5.38;;;;;;;8.72;82.41;96696.72;5037216;28;20049;-80
2023/04/16 08:18:19;;;;;;;6.47;5.18;;;;;;;8.72;82.21;96707.09;5036165;28;20131;-79
2023/04/16 08:20:46;;;;;;;7.03;5.18;;;;;;;8.73;82.27;96712.16;5037314;28;20053;-79
2023/04/16 08:23:14;;;;;;;6.72;4.97;;;;;;;8.73;82.61;96706.94;5036689;28;20041;-79
2023/04/16 08:25:42;;;;;;;6.82;5.15;;;;;;;8.77;82.56;96707.44;5036691;28;20057;-79
2023/04/16 08:28:09;;;;;;;7.57;5.03;;;;;;;8.77;82.40;96712.66;5036967;28;20080;-80
2023/04/16 08:30:37;;;;;;;6.88;5.60;;;;;;;8.78;82.42;96716.84;5036181;28;20432;-78
2023/04/16 08:33:04;;;;;;;5.85;4.78;;;;;;;8.77;82.07;96720.44;5036582;28;20413;-79
2023/04/16 08:35:33;;;;;;;5.22;4.45;;;;;;;8.74;82.23;96721.56;5037268;28;20132;-79
2023/04/16 08:38:03;;;;;;;6.55;5.15;;;;;;;8.74;81.74;96720.75;5036790;28;20072;-80
2023/04/16 08:40:32;;;;;;;6.47;4.95;;;;;;;8.73;81.95;96727.75;5036335;28;20060;-79
2023/04/16 08:43:02;;;;;;;7.10;5.70;;;;;;;8.75;82.33;96735.41;5036703;28;20133;-80
2023/04/16 08:45:31;;;;;;;7.45;5.32;;;;;;;8.75;82.29;96732.81;5034467;28;20049;-80
2023/04/16 08:47:59;;;;;;;6.43;5.45;;;;;;;8.73;82.37;96738.16;5034429;28;20048;-80
2023/04/16 08:50:27;;;;;;;10.27;5.55;;;;;;;8.74;82.30;96736.38;5034256;28;20049;-77
2023/04/16 08:52:59;;;;;;;6.47;5.70;;;;;;;8.73;82.45;96737.34;5034165;28;20053;-79
2023/04/16 08:55:36;;;;;;;7.18;5.50;;;;;;;8.75;82.54;96738.00;5034239;28;20054;-79
2023/04/16 08:58:09;;;;;;;7.50;6.20;;;;;;;8.76;82.08;96750.81;5033854;28;20060;-79
2023/04/16 09:00:37;;;;;;;7.63;5.95;;;;;;;8.76;82.14;96744.81;5034618;28;20049;-79
2023/04/16 09:03:05;;;;;;;6.82;5.57;;;;;;;8.75;81.77;96748.41;5034602;28;20049;-78
2023/04/16 09:05:33;;;;;;;6.68;5.35;;;;;;;8.76;81.90;96750.03;5034805;28;20055;-79
2023/04/16 09:08:02;;;;;;;7.50;5.50;;;;;;;8.75;81.91;96748.41;5035450;28;20523;-80
2023/04/16 09:10:30;;;;;;;6.70;5.63;;;;;;;8.77;81.84;96751.66;5036692;28;20049;-81
2023/04/16 09:12:58;;;;;;;5.90;4.95;;;;;;;8.78;81.97;96755.88;5035090;28;20092;-78
2023/04/16 09:15:26;;;;;;;7.80;6.43;;;;;;;8.79;82.06;96757.47;5034593;28;20060;-78
2023/04/16 09:17:55;;;;;;;6.95;5.20;;;;;;;8.80;81.68;96757.31;5034350;28;20045;-79
2023/04/16 09:20:23;;;;;;;7.07;5.40;;;;;;;8.83;81.86;96766.56;5034516;28;20104;-78
2023/04/16 09:22:51;;;;;;;7.10;5.80;;;;;;;8.84;81.72;96765.63;5033641;28;20056;-79
2023/04/16 09:25:20;;;;;;;6.55;5.75;;;;;;;8.84;81.54;96768.22;5037580;28;20045;-80
2023/04/16 09:27:50;;;;;;;6.35;5.28;;;;;;;8.82;81.92;96768.38;5037330;28;20088;-79
2023/04/16 09:30:26;;;;;;;5.95;5.35;;;;;;;8.84;81.74;96774.22;5042569;28;20060;-80
2023/04/16 09:33:15;;;;;;;7.68;6.47;;;;;;;8.85;81.60;96777.63;5040050;28;20054;-77
2023/04/16 09:35:46;;;;;;;6.53;5.10;;;;;;;8.85;81.28;96777.63;5040139;28;20480;-78
2023/04/16 09:38:14;;;;;;;7.18;5.55;;;;;;;8.84;81.14;96776.81;5040622;28;20053;-78
2023/04/16 09:40:43;;;;;;;6.45;5.32;;;;;;;8.83;81.12;96776.97;5040533;28;20516;-79
2023/04/16 09:43:12;;;;;;;6.28;5.15;;;;;;;8.82;81.80;96778.78;5040659;28;20045;-78
2023/04/16 09:45:49;;;;;;;5.53;4.80;;;;;;;8.88;82.22;96785.13;5040633;28;20078;-78
2023/04/16 09:48:28;;;;;;;6.13;5.35;;;;;;;8.87;81.23;96778.28;5040115;28;20057;-78
2023/04/16 09:50:56;;;;;;;5.35;4.55;;;;;;;8.87;81.21;96784.28;5039479;28;20045;-79
2023/04/16 09:53:25;;;;;;;6.70;5.32;;;;;;;8.90;81.72;96788.38;5039234;28;20057;-79
2023/04/16 09:55:56;;;;;;;5.57;4.80;;;;;;;8.92;82.32;96785.56;5039483;28;20046;-78
2023/04/16 09:58:24;;;;;;;6.80;4.60;;;;;;;8.93;81.38;96785.41;5042033;28;20060;-78
2023/04/16 10:00:56;;;;;;;5.35;4.40;;;;;;;8.91;81.80;96789.97;5042321;28;20056;-79
2023/04/16 10:03:31;;;;;;;5.30;4.15;;;;;;;8.89;81.54;96791.94;5040517;28;20049;-78
2023/04/16 10:06:00;;;;;;;4.50;4.05;;;;;;;8.89;81.27;96793.72;5041553;28;20056;-80
2023/04/16 10:08:28;;;;;;;5.85;4.57;;;;;;;8.88;81.19;96798.13;5043765;28;20156;-79
2023/04/16 10:10:57;;;;;;;4.38;3.50;;;;;;;8.90;81.39;96793.56;5043951;28;20050;-79
2023/04/16 10:13:26;;;;;;;4.60;3.42;;;;;;;8.95;81.59;96795.66;5043382;28;20069;-79
2023/04/16 10:15:55;;;;;;;6.05;3.97;;;;;;;9.00;81.54;96798.56;5042995;28;20052;-80
2023/04/16 10:18:23;;;;;;;4.45;3.55;;;;;;;9.01;81.29;96797.59;5042728;28;20060;-80
2023/04/16 10:20:51;;;;;;;4.90;4.10;;;;;;;9.01;80.99;96811.41;5043494;28;20052;-78
2023/04/16 10:23:20;;;;;;;5.55;3.50;;;;;;;9.01;81.24;96811.41;5041991;28;20050;-79
2023/04/16 10:25:48;;;;;;;3.22;2.90;;;;;;;9.03;80.97;96809.47;5041506;28;20045;-79
2023/04/16 10:28:18;;;;;;;4.05;3.03;;;;;;;9.05;80.79;96810.13;5040036;28;20115;-79
2023/04/16 10:30:52;;;;;;;4.07;3.50;;;;;;;9.06;80.06;96809.13;5039920;28;20053;-79
2023/04/16 10:33:21;;;;;;;4.40;3.58;;;;;;;9.07;80.44;96809.94;5039604;28;20049;-77
2023/04/16 10:35:50;;;;;;;4.32;3.70;;;;;;;9.08;80.81;96806.34;5039469;28;20060;-78
2023/04/16 10:38:34;;;;;;;3.92;3.10;;;;;;;9.10;81.29;96808.81;5039862;28;20497;-78
2023/04/16 10:41:03;;;;;;;4.50;3.75;;;;;;;9.15;81.28;96814.31;5037359;28;20085;-78
2023/04/16 10:43:34;;;;;;;4.93;3.80;;;;;;;9.16;81.12;96810.72;5036681;28;20128;-78
2023/04/16 10:46:20;;;;;;;5.03;3.58;;;;;;;9.20;81.07;96809.41;5037062;28;20050;-78
2023/04/16 10:48:50;;;;;;;4.00;3.33;;;;;;;9.21;80.76;96811.84;5036983;28;20049;-78
2023/04/16 10:51:30;;;;;;;4.75;3.65;;;;;;;9.28;81.06;96812.00;5036707;28;20053;-78
2023/04/16 10:54:03;;;;;;;3.90;3.45;;;;;;;9.33;80.62;96819.28;5036892;28;20099;-77
2023/04/16 10:56:33;;;;;;;4.10;3.33;;;;;;;9.40;81.15;96820.22;5039494;28;20049;-78
2023/04/16 10:59:04;;;;;;;4.97;3.47;;;;;;;9.52;79.95;96820.69;5037252;28;20060;-79
2023/04/16 11:01:33;;;;;;;3.40;2.85;;;;;;;9.53;79.36;96819.69;5037069;28;20053;-78
2023/04/16 11:04:21;;;;;;;3.40;3.10;;;;;;;9.53;79.68;96811.88;5036490;28;20417;-78
2023/04/16 11:07:04;;;;;;;4.13;3.58;;;;;;;9.58;79.53;96827.84;5039358;28;20132;-78
2023/04/16 11:09:50;;;;;;;;;;;;;;;9.58;79.82;96827.84;5040838;28;20079;-78
2023/04/16 11:12:19;;;;;;;4.45;3.78;;;;;;;9.57;79.91;96820.97;5039701;28;19927;-79
2023/04/16 11:14:49;;;;;;;5.20;4.50;;;;;;;9.51;79.12;96826.88;5038509;28;20049;-79
2023/04/16 11:17:18;;;;;;;4.40;3.78;;;;;;;9.45;79.25;96821.38;5037044;28;20524;-78
2023/04/16 11:19:46;;;;;;;6.03;4.10;;;;;;;9.45;79.59;96823.97;5037674;28;20060;-77
2023/04/16 11:22:16;;;;;;;4.57;3.55;;;;;;;9.44;79.21;96829.34;5037164;28;20056;-77
2023/04/16 11:24:45;;;;;;;4.63;4.00;;;;;;;9.42;79.33;96823.47;5037916;28;20059;-77
2023/04/16 11:27:14;;;;;;;5.50;4.43;;;;;;;9.37;79.49;96829.19;5037914;28;20076;-79
2023/04/16 11:29:41;;;;;;;4.97;4.13;;;;;;;9.36;79.12;96829.34;5037365;28;20085;-80
2023/04/16 11:32:20;;;;;;;6.57;4.90;;;;;;;9.34;79.41;96834.75;5038399;28;20049;-79
2023/04/16 11:34:48;;;;;;;5.07;4.28;;;;;;;9.34;79.64;96836.56;5037039;28;20504;-78
2023/04/16 11:37:18;;;;;;;4.85;3.90;;;;;;;9.34;79.37;96837.34;5036619;28;20052;-78
2023/04/16 11:39:50;;;;;;;4.78;3.90;;;;;;;9.35;80.37;96836.34;5036921;28;20057;-76
2023/04/16 11:42:22;;;;;;;3.75;3.42;;;;;;;9.37;80.36;96844.81;5038051;28;20053;-79
2023/04/16 11:44:54;;;;;;;3.83;3.35;;;;;;;9.35;79.78;96838.97;5038825;28;20046;-78
2023/04/16 11:47:24;;;;;;;5.53;4.53;;;;;;;9.33;79.75;96843.53;5038527;28;20489;-78
2023/04/16 11:49:52;;;;;;;5.22;4.07;;;;;;;9.32;79.75;96838.50;5038785;28;20472;-77
2023/04/16 11:52:27;;;;;;;4.20;3.45;;;;;;;9.31;79.92;96850.69;5037409;28;20401;-79
2023/04/16 11:54:55;;;;;;;6.05;4.22;;;;;;;9.30;79.92;96848.28;5037491;28;20053;-78